createdAt,value
2023-12-10T00:01:07.679Z,74.40
2023-12-10T00:03:34.762Z,74.70
2023-12-10T00:06:07.585Z,75.10
2023-12-10T00:08:40.593Z,75.90
2023-12-10T00:11:07.489Z,76.60
2023-12-10T00:13:34.405Z,77.30
2023-12-10T00:16:01.280Z,77.90
2023-12-10T00:18:28.271Z,78.60
2023-12-10T00:20:55.450Z,79.30
2023-12-10T00:23:22.839Z,79.90
2023-12-10T00:25:49.783Z,80.40
2023-12-10T00:28:16.641Z,80.80
2023-12-10T00:30:44.043Z,81.10
2023-12-10T00:33:11.374Z,81.40
2023-12-10T00:35:38.318Z,81.60
2023-12-10T00:38:05.219Z,81.70
2023-12-10T00:40:32.184Z,81.80
2023-12-10T00:42:59.558Z,81.80
2023-12-10T00:45:29.298Z,82.00
2023-12-10T00:47:56.336Z,82.10
2023-12-10T00:50:23.387Z,82.30
2023-12-10T00:52:50.555Z,82.50
2023-12-10T00:55:19.501Z,82.60
2023-12-10T00:57:46.417Z,82.70
2023-12-10T01:00:14.200Z,82.80
2023-12-10T01:02:41.996Z,82.90
2023-12-10T01:05:09.160Z,83.00
2023-12-10T01:07:36.223Z,83.10
2023-12-10T01:10:06.441Z,83.10
2023-12-10T01:12:39.007Z,83.10
2023-12-10T01:15:06.660Z,83.30
2023-12-10T01:18:03.833Z,83.20
2023-12-10T01:20:35.040Z,83.40
2023-12-10T01:23:04.612Z,83.40
2023-12-10T01:25:31.632Z,83.40
2023-12-10T01:27:58.593Z,83.40
2023-12-10T01:30:25.773Z,83.60
2023-12-10T01:32:58.984Z,83.80
2023-12-10T01:35:26.967Z,83.70
2023-12-10T01:37:54.018Z,83.40
2023-12-10T01:40:20.995Z,83.50
2023-12-10T01:42:48.340Z,83.20
2023-12-10T01:45:15.658Z,83.30
2023-12-10T01:47:44.042Z,83.10
2023-12-10T01:50:14.682Z,83.30
2023-12-10T01:52:42.773Z,82.90
2023-12-10T01:55:11.081Z,83.00
2023-12-10T01:57:38.206Z,82.80
2023-12-10T02:00:08.853Z,82.90
2023-12-10T02:02:43.520Z,82.70
2023-12-10T02:05:11.224Z,82.40
2023-12-10T02:07:38.737Z,82.60
2023-12-10T02:10:07.384Z,82.50
2023-12-10T02:12:36.609Z,82.70
2023-12-10T02:15:14.616Z,83.10
2023-12-10T02:17:42.596Z,83.20
2023-12-10T02:20:16.039Z,83.20
2023-12-10T02:22:52.511Z,83.40
2023-12-10T02:25:29.300Z,83.40
2023-12-10T02:27:56.718Z,83.30
2023-12-10T02:30:23.707Z,83.30
2023-12-10T02:32:50.848Z,83.60
2023-12-10T02:35:17.860Z,83.40
2023-12-10T02:37:44.767Z,83.60
2023-12-10T02:40:12.293Z,83.50
2023-12-10T02:42:39.253Z,83.50
2023-12-10T02:45:06.646Z,83.50
2023-12-10T02:47:33.813Z,83.50
2023-12-10T02:50:00.719Z,83.50
2023-12-10T02:52:28.017Z,83.60
2023-12-10T02:54:55.207Z,84.00
2023-12-10T02:57:22.889Z,84.00
2023-12-10T02:59:49.779Z,83.90
2023-12-10T03:02:17.019Z,83.80
2023-12-10T03:04:44.210Z,83.50
2023-12-10T03:07:11.264Z,83.20
2023-12-10T03:09:38.309Z,83.40
2023-12-10T03:12:05.808Z,83.20
2023-12-10T03:14:33.573Z,82.80
2023-12-10T03:17:00.536Z,83.30
2023-12-10T03:19:27.863Z,83.10
2023-12-10T03:21:54.882Z,83.10
2023-12-10T03:24:21.802Z,83.30
2023-12-10T03:26:48.672Z,83.00
2023-12-10T03:29:15.594Z,82.90
2023-12-10T03:31:42.559Z,83.30
2023-12-10T03:34:09.741Z,83.20
2023-12-10T03:36:36.794Z,83.10
2023-12-10T03:39:04.164Z,82.70
2023-12-10T03:41:31.199Z,82.90
2023-12-10T03:43:58.138Z,83.20
2023-12-10T03:46:25.154Z,83.60
2023-12-10T03:48:53.196Z,82.90
2023-12-10T03:51:20.370Z,82.80
2023-12-10T03:53:47.504Z,83.10
2023-12-10T03:56:14.407Z,82.80
2023-12-10T03:58:41.272Z,83.00
2023-12-10T04:01:08.326Z,82.60
2023-12-10T04:03:38.298Z,83.10
2023-12-10T04:06:05.457Z,83.10
2023-12-10T04:08:32.361Z,83.00
2023-12-10T04:10:59.313Z,82.50
2023-12-10T04:13:26.264Z,81.90
2023-12-10T04:15:53.426Z,81.80
2023-12-10T04:18:20.502Z,81.70
2023-12-10T04:20:47.570Z,81.20
2023-12-10T04:23:14.598Z,81.70
2023-12-10T04:25:41.613Z,81.30
2023-12-10T04:28:08.610Z,80.20
2023-12-10T04:30:37.847Z,79.60
2023-12-10T04:33:05.591Z,79.00
2023-12-10T04:35:32.697Z,79.10
2023-12-10T04:37:59.680Z,78.70
2023-12-10T04:40:26.718Z,78.20
2023-12-10T04:42:53.642Z,78.30
2023-12-10T04:45:20.683Z,77.60
2023-12-10T04:47:48.358Z,77.20
2023-12-10T04:50:15.526Z,77.20
2023-12-10T04:52:42.501Z,76.80
2023-12-10T04:55:09.475Z,77.00
2023-12-10T04:57:39.089Z,76.20
2023-12-10T05:00:09.470Z,76.90
2023-12-10T05:02:36.944Z,76.50
2023-12-10T05:05:04.387Z,76.20
2023-12-10T05:07:31.304Z,75.50
2023-12-10T05:09:58.813Z,75.50
2023-12-10T05:12:25.955Z,75.30
2023-12-10T05:14:53.191Z,75.50
2023-12-10T05:17:20.258Z,76.20
2023-12-10T05:19:47.393Z,75.50
2023-12-10T05:22:14.592Z,76.20
2023-12-10T05:24:41.919Z,75.80
2023-12-10T05:27:09.621Z,75.60
2023-12-10T05:29:36.621Z,74.60
2023-12-10T05:32:03.930Z,74.10
2023-12-10T05:34:30.973Z,74.30
2023-12-10T05:36:58.349Z,75.10
2023-12-10T05:39:26.260Z,75.00
2023-12-10T05:41:53.469Z,74.30
2023-12-10T05:44:20.869Z,73.90
2023-12-10T05:46:47.701Z,73.70
2023-12-10T05:49:14.846Z,73.40
2023-12-10T05:51:41.889Z,73.40
2023-12-10T05:54:08.813Z,74.00
2023-12-10T05:56:35.809Z,73.70
2023-12-10T05:59:02.870Z,73.40
2023-12-10T06:01:29.833Z,74.10
2023-12-10T06:03:56.919Z,74.90
2023-12-10T06:06:24.044Z,75.00
2023-12-10T06:08:51.180Z,75.10
2023-12-10T06:11:18.656Z,75.00
2023-12-10T06:13:48.006Z,75.00
2023-12-10T06:16:15.251Z,76.00
2023-12-10T06:18:42.252Z,74.40
2023-12-10T06:21:09.250Z,75.30
2023-12-10T06:23:36.210Z,74.70
2023-12-10T06:26:03.280Z,75.30
2023-12-10T06:28:30.163Z,75.10
2023-12-10T06:30:59.181Z,75.00
2023-12-10T06:33:26.359Z,75.00
2023-12-10T06:35:53.399Z,74.40
2023-12-10T06:38:20.284Z,74.90
2023-12-10T06:40:47.259Z,73.70
2023-12-10T06:43:14.256Z,73.90
2023-12-10T06:45:43.824Z,73.40
2023-12-10T06:48:11.172Z,73.50
2023-12-10T06:50:38.080Z,73.20
2023-12-10T06:53:05.059Z,72.80
2023-12-10T06:55:31.965Z,73.80
2023-12-10T06:57:58.974Z,74.10
2023-12-10T07:00:28.711Z,73.20
2023-12-10T07:02:55.890Z,74.30
2023-12-10T07:05:22.915Z,74.40
2023-12-10T07:07:49.889Z,73.00
2023-12-10T07:10:16.934Z,73.00
2023-12-10T07:12:44.485Z,72.60
2023-12-10T07:15:11.671Z,73.10
2023-12-10T07:17:38.792Z,73.50
2023-12-10T07:20:23.524Z,72.40
2023-12-10T07:22:54.721Z,73.30
2023-12-10T07:25:24.688Z,73.40
2023-12-10T07:27:51.588Z,73.30
2023-12-10T07:30:18.541Z,72.60
2023-12-10T07:32:49.729Z,73.20
2023-12-10T07:35:16.990Z,73.60
2023-12-10T07:37:46.070Z,72.70
2023-12-10T07:40:13.390Z,73.70
2023-12-10T07:42:40.425Z,74.00
2023-12-10T07:45:07.696Z,73.90
2023-12-10T07:47:34.646Z,72.30
2023-12-10T07:50:01.626Z,73.80
2023-12-10T07:52:28.646Z,73.00
2023-12-10T07:54:55.727Z,73.90
2023-12-10T07:57:22.759Z,73.30
2023-12-10T07:59:49.701Z,73.50
2023-12-10T08:02:17.021Z,73.60
2023-12-10T08:04:43.922Z,73.30
2023-12-10T08:07:10.841Z,73.30
2023-12-10T08:09:37.942Z,73.50
2023-12-10T08:12:05.841Z,74.20
2023-12-10T08:14:33.007Z,73.90
2023-12-10T08:17:01.100Z,74.00
2023-12-10T08:19:28.171Z,74.10
2023-12-10T08:21:55.323Z,73.40
2023-12-10T08:24:22.400Z,74.00
2023-12-10T08:26:49.295Z,73.20
2023-12-10T08:29:17.274Z,74.30
2023-12-10T08:31:44.211Z,73.70
2023-12-10T08:34:14.044Z,73.30
2023-12-10T08:36:41.482Z,73.90
2023-12-10T08:39:08.809Z,73.60
2023-12-10T08:41:35.745Z,73.60
2023-12-10T08:44:03.116Z,73.90
2023-12-10T08:46:30.039Z,74.00
2023-12-10T08:48:57.090Z,73.60
2023-12-10T08:51:24.185Z,74.10
2023-12-10T08:53:51.966Z,74.50
2023-12-10T08:56:18.870Z,74.00
2023-12-10T08:58:48.276Z,73.80
2023-12-10T09:01:15.196Z,74.10
2023-12-10T09:03:43.842Z,74.40
2023-12-10T09:06:10.973Z,74.50
2023-12-10T09:08:37.988Z,74.50
2023-12-10T09:11:05.695Z,73.90
2023-12-10T09:13:33.554Z,74.10
2023-12-10T09:16:00.996Z,74.00
2023-12-10T09:18:28.467Z,73.40
2023-12-10T09:20:56.226Z,73.50
2023-12-10T09:23:25.841Z,74.40
2023-12-10T09:25:53.791Z,74.20
2023-12-10T09:28:20.797Z,74.30
2023-12-10T09:30:48.100Z,74.10
2023-12-10T09:33:15.149Z,73.80
2023-12-10T09:35:42.201Z,74.40
2023-12-10T09:38:09.157Z,73.10
2023-12-10T09:40:36.014Z,73.70
2023-12-10T09:43:03.154Z,73.40
2023-12-10T09:45:31.064Z,73.50
2023-12-10T09:47:58.193Z,73.20
2023-12-10T09:50:25.498Z,72.40
2023-12-10T09:52:55.675Z,73.20
2023-12-10T09:55:22.566Z,72.90
2023-12-10T09:57:50.134Z,72.80
2023-12-10T10:00:17.746Z,73.20
2023-12-10T10:02:45.659Z,73.30
2023-12-10T10:05:12.721Z,72.70
2023-12-10T10:07:40.049Z,72.50
2023-12-10T10:10:12.007Z,72.90
2023-12-10T10:12:39.174Z,73.00
2023-12-10T10:15:06.961Z,72.50
2023-12-10T10:17:38.491Z,72.30
2023-12-10T10:20:06.470Z,72.80
2023-12-10T10:22:33.613Z,73.30
2023-12-10T10:25:01.293Z,72.20
2023-12-10T10:27:28.918Z,72.00
2023-12-10T10:29:56.097Z,71.60
2023-12-10T10:32:24.948Z,71.60
2023-12-10T10:34:52.287Z,71.30
2023-12-10T10:37:20.706Z,70.90
2023-12-10T10:39:51.641Z,70.80
2023-12-10T10:42:19.568Z,71.00
2023-12-10T10:44:47.473Z,70.60
2023-12-10T10:47:14.472Z,71.30
2023-12-10T10:50:19.388Z,70.80
2023-12-10T10:52:41.182Z,70.20
2023-12-10T10:55:08.771Z,70.00
2023-12-10T10:57:37.573Z,69.00
2023-12-10T11:00:22.544Z,69.50
2023-12-10T11:02:58.209Z,68.90
2023-12-10T11:05:33.360Z,68.30
2023-12-10T11:08:00.811Z,68.90
2023-12-10T11:10:28.052Z,69.30
2023-12-10T11:13:00.868Z,69.30
2023-12-10T11:15:29.352Z,69.10
2023-12-10T11:17:58.142Z,68.90
2023-12-10T11:20:42.163Z,69.50
2023-12-10T11:23:12.129Z,69.20
2023-12-10T11:25:39.949Z,69.80
2023-12-10T11:28:19.155Z,69.40
2023-12-10T11:30:47.248Z,69.40
2023-12-10T11:33:16.281Z,69.60
2023-12-10T11:35:43.741Z,69.80
2023-12-10T11:38:11.364Z,69.60
2023-12-10T11:40:39.345Z,70.10
2023-12-10T11:43:08.217Z,70.00
2023-12-10T11:45:36.346Z,70.00
2023-12-10T11:48:05.871Z,70.10
2023-12-10T11:50:40.793Z,70.00
2023-12-10T11:53:07.829Z,70.30
2023-12-10T11:55:34.978Z,70.30
2023-12-10T11:58:01.999Z,70.40
2023-12-10T12:00:29.061Z,70.20
2023-12-10T12:02:57.245Z,70.20
2023-12-10T12:05:24.137Z,69.90
2023-12-10T12:07:51.804Z,70.00
2023-12-10T12:10:19.356Z,69.70
2023-12-10T12:12:48.376Z,69.70
2023-12-10T12:15:16.834Z,69.70
2023-12-10T12:17:45.456Z,69.50
2023-12-10T12:20:19.459Z,69.70
2023-12-10T12:22:49.169Z,70.00
2023-12-10T12:25:20.000Z,70.00
2023-12-10T12:27:47.542Z,70.10
2023-12-10T12:30:17.022Z,70.30
2023-12-10T12:32:44.258Z,70.30
2023-12-10T12:35:11.209Z,70.20
2023-12-10T12:37:38.387Z,70.20
2023-12-10T12:40:05.881Z,70.20
2023-12-10T12:42:33.112Z,70.20
2023-12-10T12:45:00.157Z,70.50
2023-12-10T12:47:27.403Z,70.60
2023-12-10T12:49:55.195Z,70.70
2023-12-10T12:52:22.366Z,70.50
2023-12-10T12:54:49.309Z,70.70
2023-12-10T12:57:17.783Z,70.80
2023-12-10T12:59:44.824Z,70.70
2023-12-10T13:02:11.747Z,70.90
2023-12-10T13:04:38.970Z,71.00
2023-12-10T13:07:06.086Z,71.40
2023-12-10T13:09:33.224Z,71.40
2023-12-10T13:12:01.342Z,71.50
2023-12-10T13:14:28.720Z,71.50
2023-12-10T13:16:55.548Z,71.60
2023-12-10T13:19:22.629Z,71.60
2023-12-10T13:21:52.883Z,71.60
2023-12-10T13:24:20.158Z,71.80
2023-12-10T13:26:47.251Z,71.70
2023-12-10T13:29:14.504Z,71.90
2023-12-10T13:31:41.496Z,71.80
2023-12-10T13:34:08.575Z,71.90
2023-12-10T13:36:36.141Z,72.10
2023-12-10T13:39:04.555Z,72.20
2023-12-10T13:41:31.619Z,72.40
2023-12-10T13:43:58.555Z,72.50
2023-12-10T13:46:26.938Z,72.40
2023-12-10T13:48:54.443Z,72.50
2023-12-10T13:51:21.779Z,72.50
2023-12-10T13:53:48.887Z,72.50
2023-12-10T13:56:15.828Z,72.60
2023-12-10T13:58:42.984Z,72.70
2023-12-10T14:01:10.020Z,72.70
2023-12-10T14:03:37.019Z,72.80
2023-12-10T14:06:06.627Z,72.90
2023-12-10T14:08:33.829Z,72.80
2023-12-10T14:11:00.930Z,72.80
2023-12-10T14:13:27.945Z,73.00
2023-12-10T14:15:56.370Z,73.00
2023-12-10T14:18:23.684Z,73.10
2023-12-10T14:20:50.880Z,73.10
2023-12-10T14:23:18.038Z,73.20
2023-12-10T14:25:45.602Z,73.20
2023-12-10T14:28:12.969Z,73.10
2023-12-10T14:30:41.521Z,73.10
2023-12-10T14:33:09.151Z,73.20
2023-12-10T14:35:36.541Z,73.30
2023-12-10T14:38:06.387Z,73.30
2023-12-10T14:40:33.266Z,73.30
2023-12-10T14:43:00.338Z,73.40
2023-12-10T14:45:27.487Z,73.50
2023-12-10T14:47:54.527Z,73.40
2023-12-10T14:50:21.532Z,73.50
2023-12-10T14:52:48.665Z,73.50
2023-12-10T14:55:19.333Z,73.60
2023-12-10T14:57:47.393Z,73.60
2023-12-10T15:00:15.742Z,73.60
2023-12-10T15:02:42.564Z,73.60
2023-12-10T15:05:09.750Z,73.50
2023-12-10T15:07:43.109Z,73.50
2023-12-10T15:10:13.583Z,73.50
2023-12-10T15:12:41.499Z,73.50
2023-12-10T15:15:09.417Z,73.50
2023-12-10T15:17:36.618Z,73.50
2023-12-10T15:20:06.772Z,73.40
2023-12-10T15:22:33.681Z,73.40
2023-12-10T15:25:00.615Z,73.30
2023-12-10T15:27:27.785Z,73.10
2023-12-10T15:29:54.884Z,73.10
2023-12-10T15:32:21.821Z,73.10
2023-12-10T15:34:49.087Z,73.00
2023-12-10T15:37:16.096Z,72.80
2023-12-10T15:39:43.138Z,72.80
2023-12-10T15:42:12.839Z,72.80
2023-12-10T15:44:39.731Z,72.80
2023-12-10T15:47:06.599Z,72.60
2023-12-10T15:49:34.084Z,72.60
2023-12-10T15:52:04.830Z,72.60
2023-12-10T15:54:33.042Z,72.50
2023-12-10T15:57:03.711Z,72.50
2023-12-10T15:59:31.598Z,72.50
2023-12-10T16:02:01.974Z,72.60
2023-12-10T16:04:29.125Z,73.40
2023-12-10T16:06:56.417Z,74.00
2023-12-10T16:09:23.495Z,73.90
2023-12-10T16:11:50.522Z,74.20
2023-12-10T16:14:17.497Z,74.30
2023-12-10T16:16:44.698Z,74.50
2023-12-10T16:19:11.724Z,74.60
2023-12-10T16:21:38.801Z,74.60
2023-12-10T16:24:05.844Z,74.70
2023-12-10T16:26:38.947Z,74.80
2023-12-10T16:29:05.993Z,75.10
2023-12-10T16:31:36.494Z,75.00
2023-12-10T16:34:04.210Z,75.00
2023-12-10T16:36:31.323Z,74.90
2023-12-10T16:38:58.306Z,74.80
2023-12-10T16:41:25.201Z,74.70
2023-12-10T16:43:52.543Z,74.80
2023-12-10T16:46:19.620Z,74.70
2023-12-10T16:48:46.755Z,74.70
2023-12-10T16:51:14.189Z,74.80
2023-12-10T16:53:41.224Z,74.90
2023-12-10T16:56:13.478Z,75.00
2023-12-10T16:58:40.386Z,75.10
2023-12-10T17:01:07.476Z,75.30
2023-12-10T17:03:34.746Z,75.40
2023-12-10T17:06:01.855Z,75.40
2023-12-10T17:08:28.848Z,75.50
2023-12-10T17:10:55.726Z,75.60
2023-12-10T17:13:22.654Z,75.80
2023-12-10T17:15:55.832Z,76.00
2023-12-10T17:18:25.116Z,76.20
2023-12-10T17:20:54.746Z,76.40
2023-12-10T17:23:21.926Z,76.60
2023-12-10T17:25:49.270Z,76.80
2023-12-10T17:28:21.761Z,77.20
2023-12-10T17:30:48.604Z,77.30
2023-12-10T17:33:15.528Z,77.50
2023-12-10T17:35:42.392Z,77.80
2023-12-10T17:38:09.250Z,78.00
2023-12-10T17:40:36.165Z,78.20
2023-12-10T17:43:03.130Z,78.40
2023-12-10T17:45:30.109Z,78.80
2023-12-10T17:47:58.166Z,79.10
2023-12-10T17:50:25.159Z,79.40
2023-12-10T17:52:52.178Z,79.60
2023-12-10T17:55:19.184Z,79.90
2023-12-10T17:57:46.191Z,80.10
2023-12-10T18:00:16.251Z,80.30
2023-12-10T18:02:46.382Z,80.40
2023-12-10T18:05:15.266Z,80.70
2023-12-10T18:07:42.333Z,81.00
2023-12-10T18:10:10.014Z,81.30
2023-12-10T18:12:37.149Z,81.60
2023-12-10T18:15:04.664Z,81.80
2023-12-10T18:17:31.951Z,82.00
2023-12-10T18:19:59.310Z,82.20
2023-12-10T18:22:27.028Z,82.30
2023-12-10T18:24:54.406Z,82.50
2023-12-10T18:27:22.892Z,82.60
2023-12-10T18:29:49.894Z,82.80
2023-12-10T18:32:20.789Z,82.90
2023-12-10T18:34:48.397Z,83.10
2023-12-10T18:37:18.013Z,83.30
2023-12-10T18:39:45.445Z,83.50
2023-12-10T18:42:12.702Z,83.80
2023-12-10T18:44:39.809Z,84.00
2023-12-10T18:47:07.051Z,84.30
2023-12-10T18:49:34.300Z,84.60
2023-12-10T18:52:01.573Z,84.80
2023-12-10T18:54:29.058Z,84.90
2023-12-10T18:56:56.379Z,84.80
2023-12-10T18:59:23.840Z,84.80
2023-12-10T19:01:53.066Z,84.80
2023-12-10T19:04:25.045Z,84.80
2023-12-10T19:07:15.958Z,84.80
2023-12-10T19:09:45.822Z,84.80
2023-12-10T19:12:13.062Z,84.70
2023-12-10T19:14:41.896Z,84.70
2023-12-10T19:17:10.548Z,84.70
2023-12-10T19:19:40.830Z,84.90
2023-12-10T19:22:08.093Z,84.80
2023-12-10T19:24:35.158Z,84.80
2023-12-10T19:27:02.218Z,84.80
2023-12-10T19:29:30.070Z,84.70
2023-12-10T19:31:58.129Z,84.70
2023-12-10T19:34:27.991Z,84.70
2023-12-10T19:36:55.211Z,84.70
2023-12-10T19:39:22.221Z,84.70
2023-12-10T19:41:49.979Z,84.50
2023-12-10T19:44:20.279Z,84.50
2023-12-10T19:46:47.625Z,84.40
2023-12-10T19:49:16.439Z,84.20
2023-12-10T19:51:44.214Z,84.20
2023-12-10T19:54:11.429Z,84.20
2023-12-10T19:56:39.368Z,84.20
2023-12-10T19:59:06.459Z,84.00
2023-12-10T20:01:33.575Z,83.90
2023-12-10T20:04:03.844Z,83.80
2023-12-10T20:06:34.754Z,83.60
2023-12-10T20:09:02.056Z,83.40
2023-12-10T20:11:29.787Z,83.30
2023-12-10T20:13:56.821Z,83.40
2023-12-10T20:16:24.053Z,83.20
2023-12-10T20:18:52.364Z,83.20
2023-12-10T20:21:19.517Z,83.20
2023-12-10T20:23:46.716Z,83.30
2023-12-10T20:26:21.335Z,83.40
2023-12-10T20:28:52.053Z,83.40
2023-12-10T20:31:19.157Z,83.40
2023-12-10T20:33:46.392Z,83.50
2023-12-10T20:36:13.907Z,83.60
2023-12-10T20:38:41.293Z,83.50
2023-12-10T20:41:08.360Z,83.50
2023-12-10T20:43:35.471Z,83.50
2023-12-10T20:46:02.695Z,83.50
2023-12-10T20:48:29.895Z,83.40
2023-12-10T20:50:56.976Z,83.40
2023-12-10T20:53:24.914Z,83.30
2023-12-10T20:55:51.821Z,83.30
2023-12-10T20:58:19.063Z,83.10
2023-12-10T21:00:46.153Z,83.00
2023-12-10T21:03:19.569Z,82.60
2023-12-10T21:05:47.763Z,82.70
2023-12-10T21:08:14.865Z,82.80
2023-12-10T21:10:42.017Z,82.60
2023-12-10T21:13:09.176Z,82.50
2023-12-10T21:15:36.182Z,82.40
2023-12-10T21:18:03.846Z,82.40
2023-12-10T21:20:33.972Z,82.10
2023-12-10T21:23:00.886Z,82.10
2023-12-10T21:25:27.839Z,81.60
2023-12-10T21:27:55.075Z,81.50
2023-12-10T21:30:22.014Z,81.70
2023-12-10T21:32:48.995Z,81.20
2023-12-10T21:35:15.987Z,81.10
2023-12-10T21:37:42.826Z,80.80
2023-12-10T21:40:10.694Z,80.70
2023-12-10T21:42:37.976Z,80.80
2023-12-10T21:45:05.496Z,79.40
2023-12-10T21:47:32.914Z,79.80
2023-12-10T21:50:00.408Z,79.60
2023-12-10T21:52:27.939Z,79.50
2023-12-10T21:54:55.396Z,79.40
2023-12-10T21:57:22.645Z,79.50
2023-12-10T21:59:49.569Z,79.50
2023-12-10T22:02:17.688Z,79.70
2023-12-10T22:04:44.642Z,79.40
2023-12-10T22:07:11.818Z,79.30
2023-12-10T22:09:38.746Z,79.60
2023-12-10T22:12:06.045Z,79.40
2023-12-10T22:14:32.958Z,79.70
2023-12-10T22:16:59.853Z,79.80
2023-12-10T22:19:29.977Z,80.00
2023-12-10T22:21:56.903Z,80.30
2023-12-10T22:24:27.695Z,80.30
2023-12-10T22:26:54.638Z,80.40
2023-12-10T22:29:21.478Z,80.60
2023-12-10T22:31:49.651Z,80.80
2023-12-10T22:34:16.581Z,81.10
2023-12-10T22:36:45.050Z,81.40
2023-12-10T22:39:14.228Z,81.60
2023-12-10T22:41:42.840Z,81.70
2023-12-10T22:44:10.156Z,81.80
2023-12-10T22:46:37.200Z,82.00
2023-12-10T22:49:04.411Z,82.20
2023-12-10T22:51:31.511Z,82.30
2023-12-10T22:53:58.403Z,82.40
2023-12-10T22:56:27.933Z,82.50
2023-12-10T22:58:54.747Z,82.60
2023-12-10T23:01:21.776Z,83.00
2023-12-10T23:03:54.624Z,83.10
2023-12-10T23:06:22.515Z,83.10
2023-12-10T23:08:49.433Z,82.90
2023-12-10T23:11:16.425Z,83.00
2023-12-10T23:13:43.318Z,83.00
2023-12-10T23:16:12.754Z,83.00
2023-12-10T23:18:40.669Z,83.00
2023-12-10T23:21:07.693Z,83.00
2023-12-10T23:23:35.210Z,82.80
2023-12-10T23:26:03.359Z,82.90
2023-12-10T23:28:30.354Z,82.80
2023-12-10T23:30:57.389Z,82.70
2023-12-10T23:33:24.559Z,82.70
2023-12-10T23:35:51.554Z,82.60
2023-12-10T23:38:18.449Z,82.70
2023-12-10T23:40:46.176Z,82.70
2023-12-10T23:43:14.152Z,82.70
2023-12-10T23:45:41.451Z,82.70
2023-12-10T23:48:11.246Z,82.80
2023-12-10T23:50:38.185Z,82.80
2023-12-10T23:53:05.086Z,82.70
2023-12-10T23:55:32.395Z,82.70
2023-12-10T23:57:59.601Z,82.80
